x

Fowey Rock, Fl (fwyf1) Weather Station

11:00am - Sat 24th Feb 2018 All times are EST. -5 hours from GMT.

  • Wind
    24mph, 26mph gusts
  • Sea Temp 76°f
  • Air Temp 75°f
  • Sea Pressure 1023.9mb
  • Fowey Rock, Fl
  • Fowey Rock, Fl

More Historic Weather Station data

Upgrade to MSW Pro to gain access to the past 30 days of data for over 8000 Wavebouys and Weather Stations around the globe.

Join

Comparision Forecast

View Surf forecast
   
Sat 02/24 11:00am 24 26 mph 1023.9mb 76f 75f
10:00am 22 25 mph 1024mb 76f 75f
9:00am 31 33 mph 1023.7mb 76f 75f
8:00am 24 25 mph 1023.3mb 76f 75f
7:00am 23 25 mph 1023.1mb 76f 75f
6:00am 26 28 mph 1022.7mb 76f 75f
5:00am 25 26 mph 1022.4mb 76f 75f
4:00am 21 24 mph 1022.6mb 76f 75f
3:00am 24 25 mph 1022.9mb 76f 75f
2:00am 25 28 mph 1023mb 76f 76f
1:00am 28 29 mph 1023.6mb 76f 75f
12:00am 29 31 mph 1024.1mb 76f 75f
Fri 02/23 11:00pm 25 28 mph 1024.8mb 76f 75f
10:00pm 22 23 mph 1025.1mb 76f 75f
9:00pm 28 29 mph 1025mb 76f 73f
8:00pm 25 26 mph 1025.1mb 76f 75f
7:00pm 26 28 mph 1024.7mb 76f 75f
6:00pm 25 26 mph 1024.8mb 76f 76f
5:00pm 20 22 mph 1024.7mb 77f 76f
4:00pm 21 23 mph 1024.6mb 77f 76f
3:00pm 20 22 mph 1025mb 77f 76f
2:00pm 23 25 mph 1025.6mb 77f 76f
1:00pm 22 24 mph 1026.4mb 76f 76f
12:00pm 24 25 mph 1027.3mb 76f 76f
11:00am 22 24 mph 1027.6mb 76f 76f
10:00am 24 25 mph 1027.7mb 76f 76f
9:00am 23 25 mph 1027.7mb 76f 76f
8:00am 28 30 mph 1027.2mb 76f 76f
7:00am 24 28 mph 1026.7mb 76f 75f
6:00am 32 36 mph 1026.1mb 76f 73f
5:00am 26 28 mph 1025.7mb 76f 75f
4:00am 29 31 mph 1025.5mb 76f 73f
3:00am 21 24 mph 1025.9mb 76f 75f
2:00am 24 26 mph 1025.9mb 76f 75f
1:00am 22 24 mph 1026.4mb 76f 76f
12:00am 24 25 mph 1026.7mb 76f 76f
Thu 02/22 11:00pm 25 28 mph 1027.1mb 76f 76f
10:00pm 25 28 mph 1027.1mb 76f 76f
9:00pm 25 28 mph 1027mb 76f 76f
8:00pm 23 24 mph 1026.9mb 76f 76f
7:00pm 23 25 mph 1026.5mb 76f 76f
6:00pm 21 22 mph 1026.6mb 76f 76f
5:00pm 18 20 mph 1026.3mb 76f 76f
4:00pm 21 22 mph 1026.2mb 77f 76f
3:00pm 22 23 mph 1026.3mb 76f 76f
2:00pm 22 23 mph 1027.1mb 76f 76f
1:00pm 23 24 mph 1027.7mb 76f 76f
12:00pm 24 25 mph 1028.3mb 76f 76f
11:00am 25 28 mph 1028.6mb 76f 76f
10:00am 25 26 mph 1028.7mb 75f 76f
9:00am 23 25 mph 1028.2mb 76f 76f
8:00am 25 28 mph 1027.8mb 76f 76f
7:00am 24 28 mph 1027.1mb 76f 75f
6:00am 26 28 mph 1026.5mb 76f 75f
5:00am 24 26 mph 1026.1mb 76f 76f
4:00am 24 28 mph 1025.8mb 76f 76f
3:00am 26 29 mph 1026.1mb 76f 76f
2:00am 26 29 mph 1026.6mb 76f 76f
1:00am 28 30 mph 1026.8mb 76f 76f
12:00am 30 33 mph 1027.1mb 76f 76f
Wed 02/21 11:00pm 28 30 mph 1027.4mb 76f 76f
10:00pm 28 30 mph 1027.4mb 76f 76f
9:00pm 26 29 mph 1027.4mb 76f 76f
8:00pm 28 29 mph 1027.2mb 76f 76f
7:00pm 26 29 mph 1026.8mb 76f 76f
6:00pm 24 26 mph 1026.6mb 76f 76f
5:00pm 26 28 mph 1026.2mb 76f 76f
4:00pm 25 28 mph 1026.2mb 76f 76f
3:00pm 22 24 mph 1026.6mb 76f 76f
2:00pm 26 28 mph 1027mb 76f 76f
1:00pm 26 29 mph 1027.4mb 76f 76f
12:00pm 22 24 mph 1028.3mb 76f 76f
11:00am 23 25 mph 1028.8mb 76f 76f
10:00am 25 26 mph 1028.7mb 76f 76f
9:00am 26 26 mph 1028.2mb 75f 76f
8:00am 24 25 mph 1027.6mb 75f 76f
7:00am 26 29 mph 1027.3mb 76f 76f
6:00am 22 24 mph 1026.8mb 75f 76f
5:00am 23 26 mph 1026.4mb 75f 76f
4:00am 26 29 mph 1026.1mb 75f 76f
3:00am 28 29 mph 1026.2mb 75f 76f
2:00am 25 28 mph 1026.7mb 75f 76f
1:00am 28 31 mph 1027mb 75f 76f
12:00am 30 31 mph 1027.3mb 75f 76f
Tue 02/20 11:00pm 32 34 mph 1027.3mb 76f 76f
10:00pm 26 28 mph 1027.4mb 76f 77f
9:00pm 26 28 mph 1027.2mb 76f 77f
8:00pm 23 26 mph 1026.7mb 76f 77f
7:00pm 25 26 mph 1026.3mb 76f 77f
6:00pm 20 21 mph 1026mb 76f 77f